createdAt,value
2023-11-04T00:01:23.966Z,2.58
2023-11-04T00:03:52.081Z,2.50
2023-11-04T00:06:20.121Z,2.58
2023-11-04T00:08:47.117Z,2.95
2023-11-04T00:11:14.000Z,2.72
2023-11-04T00:13:40.967Z,2.22
2023-11-04T00:16:10.807Z,2.78
2023-11-04T00:18:38.381Z,3.03
2023-11-04T00:21:08.336Z,3.40
2023-11-04T00:23:35.348Z,2.38
2023-11-04T00:26:02.196Z,2.42
2023-11-04T00:28:29.041Z,2.13
2023-11-04T00:30:56.073Z,2.90
2023-11-04T00:33:23.126Z,2.72
2023-11-04T00:35:50.602Z,2.67
2023-11-04T00:38:18.028Z,2.80
2023-11-04T00:40:44.852Z,2.78
2023-11-04T00:43:11.767Z,2.83
2023-11-04T00:45:38.636Z,2.70
2023-11-04T00:48:05.791Z,2.40
2023-11-04T00:50:32.772Z,2.08
2023-11-04T00:52:59.656Z,2.42
2023-11-04T00:55:26.665Z,3.38
2023-11-04T00:57:53.574Z,2.50
2023-11-04T01:00:26.856Z,2.25
2023-11-04T01:02:55.710Z,3.13
2023-11-04T01:05:24.512Z,1.98
2023-11-04T01:07:51.454Z,1.85
2023-11-04T01:10:18.399Z,3.22
2023-11-04T01:12:45.426Z,2.35
2023-11-04T01:15:12.437Z,2.00
2023-11-04T01:17:39.456Z,1.77
2023-11-04T01:20:09.141Z,2.88
2023-11-04T01:22:36.613Z,1.75
2023-11-04T01:25:04.090Z,2.00
2023-11-04T01:27:31.095Z,2.08
2023-11-04T01:29:57.940Z,2.30
2023-11-04T01:32:25.006Z,1.80
2023-11-04T01:34:52.103Z,2.17
2023-11-04T01:37:20.348Z,1.80
2023-11-04T01:39:48.050Z,1.92
2023-11-04T01:42:15.152Z,1.85
2023-11-04T01:44:42.343Z,2.25
2023-11-04T01:47:09.345Z,2.15
2023-11-04T01:49:36.281Z,2.75
2023-11-04T01:52:04.012Z,2.00
2023-11-04T01:54:32.276Z,2.50
2023-11-04T01:56:59.677Z,2.90
2023-11-04T01:59:27.385Z,2.85
2023-11-04T02:01:54.824Z,2.10
2023-11-04T02:04:22.031Z,2.05
2023-11-04T02:06:49.402Z,2.25
2023-11-04T02:09:16.976Z,2.20
2023-11-04T02:11:44.096Z,2.13
2023-11-04T02:14:12.030Z,2.22
2023-11-04T02:16:39.148Z,2.33
2023-11-04T02:19:06.434Z,2.42
2023-11-04T02:21:33.758Z,2.33
2023-11-04T02:24:00.813Z,2.58
2023-11-04T02:26:28.292Z,1.98
2023-11-04T02:28:55.153Z,2.33
2023-11-04T02:31:22.127Z,2.42
2023-11-04T02:33:49.082Z,2.40
2023-11-04T02:36:16.175Z,1.83
2023-11-04T02:38:43.509Z,2.50
2023-11-04T02:41:10.430Z,2.50
2023-11-04T02:43:37.355Z,2.33
2023-11-04T02:46:10.394Z,2.20
2023-11-04T02:48:37.364Z,2.40
2023-11-04T02:51:04.596Z,2.92
2023-11-04T02:53:31.433Z,2.00
2023-11-04T02:55:58.198Z,2.45
2023-11-04T02:58:25.046Z,2.55
2023-11-04T03:00:51.927Z,3.08
2023-11-04T03:06:58.922Z,2.35
2023-11-04T03:09:25.750Z,2.20
2023-11-04T03:11:53.420Z,2.67
2023-11-04T03:14:20.268Z,2.15
2023-11-04T03:16:48.125Z,2.70
2023-11-04T03:19:14.952Z,2.33
2023-11-04T03:21:45.203Z,2.17
2023-11-04T03:24:12.569Z,2.83
2023-11-04T03:26:39.776Z,2.50
2023-11-04T03:29:07.177Z,2.88
2023-11-04T03:31:33.978Z,2.38
2023-11-04T03:34:00.963Z,2.28
2023-11-04T03:36:27.919Z,2.33
2023-11-04T03:38:54.780Z,2.25
2023-11-04T03:41:21.669Z,1.75
2023-11-04T03:43:48.511Z,1.90
2023-11-04T03:46:15.318Z,2.17
2023-11-04T03:48:42.262Z,2.17
2023-11-04T03:51:11.853Z,2.30
2023-11-04T03:53:38.794Z,2.80
2023-11-04T03:56:06.052Z,2.03
2023-11-04T03:58:33.074Z,2.60
2023-11-04T04:00:59.977Z,2.05
2023-11-04T04:03:26.927Z,2.25
2023-11-04T04:05:53.862Z,2.42
2023-11-04T04:08:20.726Z,2.20
2023-11-04T04:10:47.568Z,2.45
2023-11-04T04:13:14.600Z,2.20
2023-11-04T04:15:41.412Z,2.00
2023-11-04T04:18:08.330Z,2.15
2023-11-04T04:20:35.322Z,2.15
2023-11-04T04:23:02.119Z,1.88
2023-11-04T04:25:28.903Z,2.40
2023-11-04T04:27:55.775Z,2.85
2023-11-04T04:30:22.677Z,2.38
2023-11-04T04:32:50.239Z,2.80
2023-11-04T04:35:17.158Z,2.50
2023-11-04T04:37:43.987Z,2.33
2023-11-04T04:40:10.993Z,2.47
2023-11-04T04:42:38.167Z,1.92
2023-11-04T04:45:05.450Z,2.90
2023-11-04T04:47:34.596Z,2.22
2023-11-04T04:50:01.497Z,2.60
2023-11-04T04:52:28.297Z,3.13
2023-11-04T04:54:55.165Z,2.00
2023-11-04T04:57:22.058Z,2.63
2023-11-04T04:59:49.085Z,2.40
2023-11-04T05:02:16.383Z,2.15
2023-11-04T05:04:46.389Z,1.90
2023-11-04T05:07:13.263Z,1.98
2023-11-04T05:09:40.109Z,2.08
2023-11-04T05:12:07.783Z,2.10
2023-11-04T05:14:34.741Z,2.78
2023-11-04T05:17:01.534Z,2.08
2023-11-04T05:19:28.716Z,1.77
2023-11-04T05:21:55.618Z,2.40
2023-11-04T05:24:22.562Z,2.30
2023-11-04T05:26:49.513Z,2.63
2023-11-04T05:29:16.305Z,2.35
2023-11-04T05:31:43.185Z,2.00
2023-11-04T05:34:13.098Z,1.92
2023-11-04T05:36:40.030Z,1.77
2023-11-04T05:39:06.859Z,1.90
2023-11-04T05:41:33.708Z,2.00
2023-11-04T05:44:00.492Z,2.17
2023-11-04T05:46:27.353Z,2.33
2023-11-04T05:48:54.258Z,2.17
2023-11-04T05:51:26.450Z,1.88
2023-11-04T05:53:53.707Z,2.22
2023-11-04T05:56:21.365Z,2.38
2023-11-04T05:58:48.894Z,1.83
2023-11-04T06:01:16.022Z,2.05
2023-11-04T06:03:43.057Z,2.03
2023-11-04T06:06:09.962Z,1.98
2023-11-04T06:08:37.345Z,1.75
2023-11-04T06:11:04.718Z,2.10
2023-11-04T06:13:31.584Z,2.00
2023-11-04T06:15:58.461Z,1.83
2023-11-04T06:18:25.462Z,1.90
2023-11-04T06:20:52.388Z,1.95
2023-11-04T06:23:19.365Z,2.13
2023-11-04T06:29:10.658Z,1.65
2023-11-04T06:31:37.476Z,2.10
2023-11-04T06:34:04.724Z,1.90
2023-11-04T06:36:34.602Z,2.38
2023-11-04T06:39:01.764Z,2.40
2023-11-04T06:41:28.570Z,2.35
2023-11-04T06:43:55.570Z,1.77
2023-11-04T06:46:22.501Z,1.83
2023-11-04T06:48:49.737Z,1.67
2023-11-04T06:51:20.387Z,1.85
2023-11-04T06:53:47.315Z,1.88
2023-11-04T06:56:15.113Z,2.05
2023-11-04T06:58:42.319Z,2.28
2023-11-04T07:01:15.112Z,2.00
2023-11-04T07:03:42.686Z,2.08
2023-11-04T07:06:14.326Z,2.65
2023-11-04T07:08:43.839Z,1.65
2023-11-04T07:11:14.635Z,2.30
2023-11-04T07:13:42.777Z,2.05
2023-11-04T07:16:13.857Z,1.40
2023-11-04T07:18:44.487Z,1.65
2023-11-04T07:21:13.096Z,1.65
2023-11-04T07:23:40.176Z,1.60
2023-11-04T07:26:09.001Z,1.60
2023-11-04T07:28:37.441Z,2.40
2023-11-04T07:31:06.379Z,2.17
2023-11-04T07:33:34.592Z,1.48
2023-11-04T07:36:01.862Z,1.63
2023-11-04T07:38:28.756Z,2.05
2023-11-04T07:40:55.700Z,1.85
2023-11-04T07:43:22.541Z,2.08
2023-11-04T07:45:50.005Z,2.03
2023-11-04T07:48:17.890Z,1.55
2023-11-04T07:50:44.876Z,2.53
2023-11-04T07:53:11.766Z,1.50
2023-11-04T07:55:38.916Z,1.85
2023-11-04T07:58:05.916Z,2.70
2023-11-04T08:00:32.925Z,1.73
2023-11-04T08:03:02.788Z,2.15
2023-11-04T08:05:30.565Z,1.88
2023-11-04T08:07:57.767Z,2.10
2023-11-04T08:10:25.384Z,2.25
2023-11-04T08:12:52.793Z,2.00
2023-11-04T08:15:20.076Z,1.83
2023-11-04T08:17:47.036Z,1.83
2023-11-04T08:20:13.882Z,1.73
2023-11-04T08:22:41.084Z,1.77
2023-11-04T08:25:09.385Z,1.50
2023-11-04T08:27:36.757Z,2.10
2023-11-04T08:30:05.916Z,1.75
2023-11-04T08:32:33.107Z,1.50
2023-11-04T08:35:00.478Z,1.80
2023-11-04T08:37:27.957Z,1.45
2023-11-04T08:39:56.328Z,1.40
2023-11-04T08:42:24.098Z,1.70
2023-11-04T08:44:51.246Z,1.50
2023-11-04T08:47:18.443Z,1.42
2023-11-04T08:49:45.801Z,1.20
2023-11-04T08:52:13.163Z,1.73
2023-11-04T08:54:42.015Z,1.50
2023-11-04T08:57:09.565Z,1.60
2023-11-04T08:59:37.589Z,1.50
2023-11-04T09:02:04.779Z,1.80
2023-11-04T09:04:32.001Z,1.20
2023-11-04T09:06:59.295Z,1.52
2023-11-04T09:09:26.695Z,1.48
2023-11-04T09:11:56.970Z,1.75
2023-11-04T09:14:26.983Z,1.08
2023-11-04T09:16:54.277Z,1.52
2023-11-04T09:19:21.552Z,1.40
2023-11-04T09:21:48.749Z,1.50
2023-11-04T09:24:15.641Z,1.58
2023-11-04T09:26:42.455Z,1.58
2023-11-04T09:29:09.325Z,1.25
2023-11-04T09:31:37.594Z,1.25
2023-11-04T09:34:09.921Z,1.20
2023-11-04T09:36:37.230Z,1.23
2023-11-04T09:39:05.899Z,1.42
2023-11-04T09:41:35.582Z,1.17
2023-11-04T09:44:04.545Z,7.80
2023-11-04T09:46:33.093Z,2.28
2023-11-04T09:49:00.598Z,1.60
2023-11-04T09:51:29.120Z,1.73
2023-11-04T09:54:00.192Z,1.20
2023-11-04T09:56:28.161Z,1.98
2023-11-04T09:58:55.109Z,2.97
2023-11-04T10:01:22.158Z,1.52
2023-11-04T10:03:49.785Z,1.15
2023-11-04T10:06:17.371Z,1.27
2023-11-04T10:08:45.872Z,1.40
2023-11-04T10:11:12.931Z,2.15
2023-11-04T10:13:40.787Z,0.80
2023-11-04T10:16:08.968Z,1.35
2023-11-04T10:18:39.084Z,1.00
2023-11-04T10:21:07.615Z,1.27
2023-11-04T10:23:36.343Z,1.27
2023-11-04T10:26:05.465Z,1.25
2023-11-04T10:28:33.601Z,1.50
2023-11-04T10:31:05.363Z,1.55
2023-11-04T10:33:40.346Z,1.25
2023-11-04T10:36:12.570Z,0.90
2023-11-04T10:38:45.316Z,1.42
2023-11-04T10:41:18.256Z,1.10
2023-11-04T10:44:00.700Z,1.30
2023-11-04T10:46:59.616Z,1.17
2023-11-04T10:49:44.510Z,1.50
2023-11-04T10:52:15.008Z,1.47
2023-11-04T10:54:45.329Z,1.00
2023-11-04T10:57:15.444Z,1.30
2023-11-04T11:00:06.273Z,1.38
2023-11-04T11:02:34.836Z,1.10
2023-11-04T11:05:02.568Z,1.10
2023-11-04T11:07:29.899Z,1.50
2023-11-04T11:09:58.633Z,1.25
2023-11-04T11:12:26.413Z,0.90
2023-11-04T11:14:54.668Z,0.90
2023-11-04T11:17:31.332Z,1.00
2023-11-04T11:19:58.334Z,1.48
2023-11-04T11:22:28.619Z,0.80
2023-11-04T11:24:59.606Z,0.88
2023-11-04T11:27:26.862Z,1.15
2023-11-04T11:29:57.765Z,1.52
2023-11-04T11:32:36.055Z,1.02
2023-11-04T11:35:05.349Z,0.93
2023-11-04T11:37:32.390Z,1.15
2023-11-04T11:39:59.257Z,1.20
2023-11-04T11:42:29.089Z,1.23
2023-11-04T11:44:56.435Z,1.70
2023-11-04T11:47:23.621Z,1.08
2023-11-04T11:49:50.520Z,1.10
2023-11-04T11:52:17.515Z,1.30
2023-11-04T11:54:45.328Z,1.33
2023-11-04T11:57:13.151Z,1.17
2023-11-04T11:59:40.739Z,0.98
2023-11-04T12:02:09.212Z,1.17
2023-11-04T12:04:36.605Z,1.25
2023-11-04T12:07:03.990Z,1.15
2023-11-04T12:09:31.604Z,1.17
2023-11-04T12:11:58.563Z,1.30
2023-11-04T12:14:25.707Z,1.60
2023-11-04T12:16:54.264Z,1.20
2023-11-04T12:19:22.935Z,1.40
2023-11-04T12:21:50.451Z,1.27
2023-11-04T12:24:17.867Z,1.13
2023-11-04T12:26:45.653Z,1.10
2023-11-04T12:29:12.529Z,1.20
2023-11-04T12:31:40.591Z,1.10
2023-11-04T12:34:08.394Z,1.30
2023-11-04T12:36:35.615Z,1.15
2023-11-04T12:39:04.382Z,0.82
2023-11-04T12:41:31.881Z,0.88
2023-11-04T12:44:02.872Z,1.00
2023-11-04T12:46:31.103Z,1.30
2023-11-04T12:48:58.507Z,1.40
2023-11-04T12:51:26.199Z,1.30
2023-11-04T12:53:53.718Z,1.05
2023-11-04T12:56:21.090Z,1.00
2023-11-04T12:58:48.012Z,1.23
2023-11-04T13:01:15.466Z,1.88
2023-11-04T13:03:42.884Z,1.40
2023-11-04T13:06:09.985Z,1.60
2023-11-04T13:08:36.829Z,0.93
2023-11-04T13:11:32.905Z,1.15
2023-11-04T13:13:59.763Z,1.10
2023-11-04T13:16:27.530Z,1.33
2023-11-04T13:18:54.753Z,1.38
2023-11-04T13:21:22.576Z,1.60
2023-11-04T13:23:49.425Z,1.52
2023-11-04T13:26:16.289Z,1.52
2023-11-04T13:28:43.095Z,1.33
2023-11-04T13:31:09.966Z,1.40
2023-11-04T13:33:38.418Z,1.70
2023-11-04T13:36:05.828Z,1.55
2023-11-04T13:38:32.643Z,1.70
2023-11-04T13:40:59.557Z,1.40
2023-11-04T13:43:26.381Z,2.10
2023-11-04T13:45:53.230Z,1.55
2023-11-04T13:48:20.088Z,2.03
2023-11-04T13:50:46.944Z,1.88
2023-11-04T13:53:13.828Z,2.00
2023-11-04T13:55:40.619Z,2.05
2023-11-04T13:58:07.641Z,2.00
2023-11-04T14:00:34.642Z,1.85
2023-11-04T14:03:01.560Z,1.70
2023-11-04T14:05:29.237Z,1.90
2023-11-04T14:07:56.378Z,1.45
2023-11-04T14:10:23.414Z,1.75
2023-11-04T14:12:50.777Z,1.65
2023-11-04T14:15:20.312Z,1.60
2023-11-04T14:17:47.211Z,1.70
2023-11-04T14:20:14.856Z,1.13
2023-11-04T14:22:41.724Z,1.40
2023-11-04T14:25:09.378Z,1.58
2023-11-04T14:27:36.512Z,1.55
2023-11-04T14:30:05.939Z,1.35
2023-11-04T14:32:33.698Z,1.48
2023-11-04T14:35:01.455Z,1.48
2023-11-04T14:37:28.779Z,1.60
2023-11-04T14:39:57.860Z,1.48
2023-11-04T14:42:25.482Z,1.38
2023-11-04T14:44:52.343Z,1.67
2023-11-04T14:47:19.207Z,1.45
2023-11-04T14:49:46.221Z,1.30
2023-11-04T14:52:13.637Z,1.23
2023-11-04T14:54:40.600Z,1.23
2023-11-04T14:57:07.524Z,1.20
2023-11-04T14:59:34.350Z,1.33
2023-11-04T15:02:01.205Z,1.40
2023-11-04T15:04:28.073Z,1.40
2023-11-04T15:06:54.966Z,1.35
2023-11-04T15:09:21.916Z,1.23
2023-11-04T15:11:49.169Z,1.17
2023-11-04T15:14:18.008Z,1.05
2023-11-04T15:16:44.975Z,1.10
2023-11-04T15:19:11.935Z,1.30
2023-11-04T15:21:38.972Z,1.33
2023-11-04T15:24:06.909Z,1.10
2023-11-04T15:26:33.819Z,1.00
2023-11-04T15:29:00.635Z,0.80
2023-11-04T15:31:27.486Z,0.85
2023-11-04T15:33:54.438Z,0.75
2023-11-04T15:36:21.607Z,0.90
2023-11-04T15:38:48.718Z,0.93
2023-11-04T15:41:15.541Z,1.17
2023-11-04T15:43:42.494Z,1.30
2023-11-04T15:46:09.344Z,0.98
2023-11-04T15:48:36.345Z,1.00
2023-11-04T15:51:03.487Z,0.90
2023-11-04T15:53:30.401Z,1.10
2023-11-04T15:55:57.603Z,0.98
2023-11-04T15:58:28.233Z,1.17
2023-11-04T16:00:56.940Z,1.10
2023-11-04T16:03:23.850Z,1.27
2023-11-04T16:05:50.658Z,0.88
2023-11-04T16:08:17.453Z,0.90
2023-11-04T16:10:44.311Z,1.02
2023-11-04T16:13:11.349Z,1.25
2023-11-04T16:15:38.235Z,1.13
2023-11-04T16:18:05.413Z,1.00
2023-11-04T16:20:33.064Z,1.35
2023-11-04T16:23:01.552Z,1.08
2023-11-04T16:25:30.491Z,1.30
2023-11-04T16:27:57.730Z,0.70
2023-11-04T16:30:24.572Z,0.98
2023-11-04T16:32:52.474Z,0.90
2023-11-04T16:35:19.868Z,0.90
2023-11-04T16:37:47.068Z,0.70
2023-11-04T16:40:14.130Z,1.08
2023-11-04T16:42:41.177Z,0.73
2023-11-04T16:45:08.954Z,0.70
2023-11-04T16:47:35.914Z,0.90
2023-11-04T16:50:03.864Z,1.08
2023-11-04T16:52:30.764Z,0.77
2023-11-04T16:54:58.004Z,1.00
2023-11-04T16:57:24.835Z,0.73
2023-11-04T16:59:51.814Z,1.20
2023-11-04T17:02:19.409Z,1.17
2023-11-04T17:04:46.665Z,1.25
2023-11-04T17:07:13.671Z,1.00
2023-11-04T17:09:40.508Z,0.88
2023-11-04T17:12:07.719Z,1.10
2023-11-04T17:14:34.937Z,1.02
2023-11-04T17:17:01.814Z,0.82
2023-11-04T17:19:29.655Z,0.82
2023-11-04T17:21:57.029Z,0.65
2023-11-04T17:24:24.534Z,0.77
2023-11-04T17:26:52.077Z,1.08
2023-11-04T17:29:19.066Z,0.70
2023-11-04T17:31:45.914Z,1.90
2023-11-04T17:34:12.928Z,1.10
2023-11-04T17:36:41.008Z,0.70
2023-11-04T17:39:08.782Z,1.10
2023-11-04T17:41:35.656Z,1.00
2023-11-04T17:44:02.437Z,0.68
2023-11-04T17:46:29.362Z,0.80
2023-11-04T17:48:56.237Z,0.70
2023-11-04T17:51:23.929Z,0.80
2023-11-04T17:53:50.771Z,0.77
2023-11-04T17:56:17.736Z,0.60
2023-11-04T17:58:44.593Z,0.93
2023-11-04T18:01:11.948Z,0.80
2023-11-04T18:03:38.879Z,1.10
2023-11-04T18:06:06.095Z,0.82
2023-11-04T18:08:33.235Z,0.80
2023-11-04T18:11:00.248Z,0.70
2023-11-04T18:13:27.558Z,0.70
2023-11-04T18:15:55.088Z,0.77
2023-11-04T18:18:23.463Z,0.80
2023-11-04T18:20:50.425Z,0.82
2023-11-04T18:23:17.268Z,0.70
2023-11-04T18:25:44.062Z,0.88
2023-11-04T18:28:10.967Z,0.70
2023-11-04T18:30:37.816Z,0.70
2023-11-04T18:33:05.045Z,1.00
2023-11-04T18:35:33.433Z,0.73
2023-11-04T18:38:01.246Z,0.98
2023-11-04T18:40:28.101Z,0.90
2023-11-04T18:42:54.987Z,0.70
2023-11-04T18:45:21.812Z,1.20
2023-11-04T18:47:48.798Z,0.90
2023-11-04T18:50:16.348Z,1.50
2023-11-04T18:52:43.233Z,1.35
2023-11-04T18:55:10.221Z,1.10
2023-11-04T18:57:41.603Z,1.20
2023-11-04T19:00:09.632Z,1.20
2023-11-04T19:02:38.210Z,1.42
2023-11-04T19:05:09.022Z,1.58
2023-11-04T19:07:36.234Z,1.70
2023-11-04T19:10:03.274Z,1.55
2023-11-04T19:12:31.002Z,1.60
2023-11-04T19:14:57.831Z,1.50
2023-11-04T19:17:24.763Z,1.42
2023-11-04T19:19:51.568Z,1.67
2023-11-04T19:22:18.445Z,1.60
2023-11-04T19:24:45.311Z,1.70
2023-11-04T19:27:12.155Z,1.70
2023-11-04T19:29:38.989Z,1.63
2023-11-04T19:32:06.061Z,1.73
2023-11-04T19:34:32.888Z,1.95
2023-11-04T19:36:59.849Z,1.52
2023-11-04T19:39:26.664Z,1.63
2023-11-04T19:41:53.552Z,1.70
2023-11-04T19:44:20.361Z,1.50
2023-11-04T19:46:48.811Z,2.15
2023-11-04T19:49:19.606Z,1.70
2023-11-04T19:51:46.509Z,2.03
2023-11-04T19:54:13.357Z,2.40
2023-11-04T19:56:40.374Z,1.83
2023-11-04T19:59:07.208Z,2.05
2023-11-04T20:01:34.135Z,3.55
2023-11-04T20:04:02.559Z,2.05
2023-11-04T20:06:29.456Z,2.40
2023-11-04T20:08:56.355Z,2.50
2023-11-04T20:11:24.400Z,2.30
2023-11-04T20:13:51.747Z,2.20
2023-11-04T20:16:19.100Z,2.28
2023-11-04T20:18:46.047Z,2.25
2023-11-04T20:21:12.980Z,2.25
2023-11-04T20:23:39.983Z,2.20
2023-11-04T20:26:06.884Z,2.10
2023-11-04T20:28:34.047Z,2.33
2023-11-04T20:31:01.110Z,1.98
2023-11-04T20:33:28.656Z,2.40
2023-11-04T20:35:56.174Z,3.30
2023-11-04T20:38:23.080Z,2.78
2023-11-04T20:40:49.950Z,3.15
2023-11-04T20:43:16.837Z,2.33
2023-11-04T20:45:43.798Z,2.50
2023-11-04T20:48:10.675Z,2.38
2023-11-04T20:50:38.392Z,2.50
2023-11-04T20:53:05.200Z,2.85
2023-11-04T20:55:32.100Z,2.55
2023-11-04T20:57:59.073Z,2.30
2023-11-04T21:00:26.369Z,2.50
2023-11-04T21:02:53.188Z,2.80
2023-11-04T21:05:20.122Z,2.40
2023-11-04T21:07:47.005Z,2.13
2023-11-04T21:10:13.984Z,2.78
2023-11-04T21:12:41.488Z,2.45
2023-11-04T21:15:08.929Z,2.28
2023-11-04T21:17:35.793Z,2.25
2023-11-04T21:20:03.587Z,2.88
2023-11-04T21:22:36.401Z,2.10
2023-11-04T21:25:05.327Z,2.40
2023-11-04T21:27:32.193Z,2.38
2023-11-04T21:29:59.027Z,2.22
2023-11-04T21:32:25.974Z,2.28
2023-11-04T21:34:52.796Z,2.65
2023-11-04T21:37:19.667Z,2.40
2023-11-04T21:39:46.510Z,2.67
2023-11-04T21:42:13.392Z,2.95
2023-11-04T21:44:40.262Z,3.10
2023-11-04T21:47:07.144Z,2.70
2023-11-04T21:49:34.078Z,2.72
2023-11-04T21:52:01.053Z,2.92
2023-11-04T21:54:28.152Z,2.50
2023-11-04T21:56:56.342Z,2.90
2023-11-04T21:59:24.317Z,2.40
2023-11-04T22:01:51.148Z,2.85
2023-11-04T22:04:18.112Z,2.67
2023-11-04T22:06:44.962Z,2.92
2023-11-04T22:09:11.974Z,2.72
2023-11-04T22:11:38.786Z,2.42
2023-11-04T22:14:05.610Z,2.88
2023-11-04T22:16:32.588Z,2.35
2023-11-04T22:18:59.589Z,2.35
2023-11-04T22:21:26.497Z,2.30
2023-11-04T22:23:53.362Z,2.38
2023-11-04T22:26:20.203Z,2.75
2023-11-04T22:28:46.994Z,2.30
2023-11-04T22:31:13.853Z,2.38
2023-11-04T22:33:40.742Z,2.45
2023-11-04T22:36:07.910Z,2.35
2023-11-04T22:38:34.763Z,2.80
2023-11-04T22:41:02.682Z,1.80
2023-11-04T22:43:29.672Z,2.53
2023-11-04T22:45:56.689Z,1.98
2023-11-04T22:48:23.628Z,2.63
2023-11-04T22:50:50.531Z,2.00
2023-11-04T22:53:17.403Z,2.00
2023-11-04T22:55:45.326Z,1.83
2023-11-04T22:58:12.504Z,1.75
2023-11-04T23:00:45.787Z,2.05
2023-11-04T23:03:16.755Z,1.65
2023-11-04T23:05:44.189Z,1.63
2023-11-04T23:08:11.321Z,1.60
2023-11-04T23:10:38.232Z,1.40
2023-11-04T23:13:05.141Z,1.70
2023-11-04T23:15:32.131Z,1.50
2023-11-04T23:17:58.996Z,1.60
2023-11-04T23:20:25.842Z,1.50
2023-11-04T23:22:52.786Z,1.50
2023-11-04T23:25:21.951Z,1.80
2023-11-04T23:27:49.983Z,1.67
2023-11-04T23:30:16.950Z,1.83
2023-11-04T23:32:44.352Z,1.90
2023-11-04T23:35:11.548Z,1.45
2023-11-04T23:37:38.575Z,1.48
2023-11-04T23:40:06.720Z,1.27
2023-11-04T23:42:34.063Z,1.85
2023-11-04T23:45:01.106Z,1.80
2023-11-04T23:47:27.925Z,1.73
2023-11-04T23:49:54.970Z,1.60
2023-11-04T23:52:23.383Z,1.40
2023-11-04T23:54:50.414Z,1.45
2023-11-04T23:57:17.793Z,1.70
2023-11-04T23:59:44.734Z,1.42
